UWWWUWLW

Guest
Details From UWWW - KURUMOCH
To UWLW - VOSTOCHNY
Flight Number -
Tags generated
Created
Modified
Stats Distance 72 nm / 134 km
Max Altitude 0 ft / 0 m
Waypoints 2
Social Downloads 0
Likes 0
Share VATSIM

Download

Looking for another format? Having issues loading an existing format? Contact us
Advertisement - Login to hide

Notes

Basic altitude profile: - Ascent Rate: 2500ft/min - Ascent Speed: 250kts - Cruise Altitude: 35000ft - Cruise Speed: 420kts - Descent Rate: 1500ft/min - Descent Speed: 250kts Options: - Use NATs: yes - Use PACOTS: yes - Use low airways: yes - Use high airways: yes

Route

UWWW UWLW

ID Type Via Altitude Latitude Longitude Leg Dist Tot Dist Heading (true) Name
O UWWW APT - 0 ft / 0 m 53.50490˚ 50.16443˚ - 0 nm - KURUMOCH
O UWLW APT - 0 ft / 0 m 54.40101˚ 48.80266˚ 72 nm 72 nm 319° / 318° VOSTOCHNY

Altitude Profile

Advertisement - Login to hide

UWWW

Details ICAO UWWW (KBY)
Name KURUMOCH
Region Russia
Timezone Europe/Samara (UTC+4.0)
Stats Elevation 477 ft / 145 m (AMSL)
Location 53.504905° 50.164434°
Runways 2
Magnetic Variation 12.179° E

METAR

UWWW 270530Z 24004MPS CAVOK 16/M01 Q1028 R33/CLRD60 NOSIG RMK QFE760/1014

Decode

TAF

TAF UWWW 262300Z 2700/2724 28003G09MPS 9999 SCT020 BKN100 TX18/2711Z TN05/2702Z BECMG 2706/2708 26006G13MPS

Decode

Departure Runways

ID Width Length Bearing (true) Bearing (mag) Surface Threshold Offset Overrun Length
05 197 ft / 60 m 8,483 ft / 2,586 m 61.70° 49.52° Asphalt 0 ft / 0 m 75 ft / 23 m
15 148 ft / 45 m 9,845 ft / 3,001 m 160.00° 147.82° Concrete 0 ft / 0 m 175 ft / 53 m
23 197 ft / 60 m 8,483 ft / 2,586 m 241.73° 229.55° Asphalt 0 ft / 0 m 180 ft / 55 m
33 148 ft / 45 m 9,845 ft / 3,001 m 340.01° 327.83° Concrete 0 ft / 0 m 175 ft / 53 m

UWLW

Details ICAO UWLW (ULY)
Name VOSTOCHNY
Region Russia
Timezone Europe/Moscow (UTC+3.0)
Stats Elevation 252 ft / 77 m (AMSL)
Location 54.401014° 48.802664°
Runways 1
Magnetic Variation 12.548° E

METAR

UWLW 270500Z 26007MPS 8000 NSC 16/01 Q1028 R20/CLRD60 NOSIG RMK QFE765

Decode

TAF

TAF UWLW 270145Z 2703/2803 27006MPS 8000 SCT033 TEMPO 2706/2721 23010G15MPS TEMPO 2721/2803 33007G12MPS 3100 -SHRA BKN015CB

Decode

Destination Runways

ID Width Length Bearing (true) Bearing (mag) Surface Threshold Offset Overrun Length
02 344 ft / 105 m 16,466 ft / 5,019 m 31.42° 18.87° Concrete 0 ft / 0 m 264 ft / 80 m
20 344 ft / 105 m 16,466 ft / 5,019 m 211.45° 198.90° Concrete 0 ft / 0 m 248 ft / 76 m

Approach Navaids

Runway Type Ident Frequency Range Bearing (true) Bearing (mag) Slope Elevation
02 Localiser IUL 110.10 MHz 18 nm / 33 km 31.62° 19.07° - 252 ft / 77 m (AMSL)
02 Glidescope IUL 110.10 MHz 10 nm / 19 km 31.44° 18.89° 2.70° 252 ft / 77 m (AMSL)
20 Localiser IWN 110.10 MHz 18 nm / 33 km 209.79° 197.24° - 252 ft / 77 m (AMSL)
20 Glidescope IWN 110.10 MHz 10 nm / 19 km 211.44° 198.89° 2.70° 252 ft / 77 m (AMSL)